sensor_id;sensor_type;location;lat;lon;timestamp;temperature;humidity
53776;DHT22;44276;49.534;6.378;2023-02-17T00:00:06;9.50;99.90
53776;DHT22;44276;49.534;6.378;2023-02-17T00:02:37;9.50;99.90
53776;DHT22;44276;49.534;6.378;2023-02-17T00:05:06;9.60;99.90
53776;DHT22;44276;49.534;6.378;2023-02-17T00:07:34;9.60;99.90
53776;DHT22;44276;49.534;6.378;2023-02-17T00:10:03;9.60;99.90
53776;DHT22;44276;49.534;6.378;2023-02-17T00:12:31;9.70;99.90
53776;DHT22;44276;49.534;6.378;2023-02-17T00:15:01;9.60;99.90
53776;DHT22;44276;49.534;6.378;2023-02-17T00:17:29;9.60;99.90
53776;DHT22;44276;49.534;6.378;2023-02-17T00:19:57;9.60;99.90
53776;DHT22;44276;49.534;6.378;2023-02-17T00:22:25;9.70;99.90
53776;DHT22;44276;49.534;6.378;2023-02-17T00:24:54;9.70;99.90
53776;DHT22;44276;49.534;6.378;2023-02-17T00:27:22;9.70;99.90
53776;DHT22;44276;49.534;6.378;2023-02-17T00:29:50;9.70;99.90
53776;DHT22;44276;49.534;6.378;2023-02-17T00:32:20;9.70;99.90
53776;DHT22;44276;49.534;6.378;2023-02-17T00:34:48;9.70;99.90
53776;DHT22;44276;49.534;6.378;2023-02-17T00:37:16;9.70;99.90
53776;DHT22;44276;49.534;6.378;2023-02-17T00:39:44;9.70;99.90
53776;DHT22;44276;49.534;6.378;2023-02-17T00:42:12;9.60;99.90
53776;DHT22;44276;49.534;6.378;2023-02-17T00:44:40;9.60;99.90
53776;DHT22;44276;49.534;6.378;2023-02-17T00:47:08;9.60;99.90
53776;DHT22;44276;49.534;6.378;2023-02-17T00:49:38;9.60;99.90
53776;DHT22;44276;49.534;6.378;2023-02-17T00:52:06;9.50;99.90
53776;DHT22;44276;49.534;6.378;2023-02-17T00:54:34;9.40;99.90
53776;DHT22;44276;49.534;6.378;2023-02-17T00:57:03;9.40;99.90
53776;DHT22;44276;49.534;6.378;2023-02-17T00:59:31;9.40;99.90
53776;DHT22;44276;49.534;6.378;2023-02-17T01:01:59;9.50;99.90
53776;DHT22;44276;49.534;6.378;2023-02-17T01:04:27;9.40;99.90
53776;DHT22;44276;49.534;6.378;2023-02-17T01:06:56;9.50;99.90
53776;DHT22;44276;49.534;6.378;2023-02-17T01:09:24;9.50;99.90
53776;DHT22;44276;49.534;6.378;2023-02-17T01:11:53;9.60;99.90
53776;DHT22;44276;49.534;6.378;2023-02-17T01:14:21;9.50;99.90
53776;DHT22;44276;49.534;6.378;2023-02-17T01:16:49;9.60;99.90
53776;DHT22;44276;49.534;6.378;2023-02-17T01:19:18;9.70;99.90
53776;DHT22;44276;49.534;6.378;2023-02-17T01:21:46;9.60;99.90
53776;DHT22;44276;49.534;6.378;2023-02-17T01:24:16;9.60;99.90
53776;DHT22;44276;49.534;6.378;2023-02-17T01:26:44;9.60;99.90
53776;DHT22;44276;49.534;6.378;2023-02-17T01:29:12;9.60;99.90
53776;DHT22;44276;49.534;6.378;2023-02-17T01:31:40;9.60;99.90
53776;DHT22;44276;49.534;6.378;2023-02-17T01:34:09;9.60;99.90
53776;DHT22;44276;49.534;6.378;2023-02-17T01:36:38;9.60;99.90
53776;DHT22;44276;49.534;6.378;2023-02-17T01:39:06;9.70;99.90
53776;DHT22;44276;49.534;6.378;2023-02-17T01:41:35;9.70;99.90
53776;DHT22;44276;49.534;6.378;2023-02-17T01:44:12;9.70;99.90
53776;DHT22;44276;49.534;6.378;2023-02-17T01:46:44;9.70;99.90
53776;DHT22;44276;49.534;6.378;2023-02-17T01:49:30;9.70;99.90
53776;DHT22;44276;49.534;6.378;2023-02-17T01:52:06;9.80;99.90
53776;DHT22;44276;49.534;6.378;2023-02-17T01:54:39;9.80;99.90
53776;DHT22;44276;49.534;6.378;2023-02-17T01:57:10;9.80;99.90
53776;DHT22;44276;49.534;6.378;2023-02-17T01:59:41;9.70;99.90
53776;DHT22;44276;49.534;6.378;2023-02-17T02:02:11;9.70;99.90
53776;DHT22;44276;49.534;6.378;2023-02-17T02:04:42;9.70;99.90
53776;DHT22;44276;49.534;6.378;2023-02-17T02:07:17;9.70;99.90
53776;DHT22;44276;49.534;6.378;2023-02-17T02:09:51;9.70;99.90
53776;DHT22;44276;49.534;6.378;2023-02-17T02:12:25;9.80;99.90
53776;DHT22;44276;49.534;6.378;2023-02-17T02:14:58;9.70;99.90
53776;DHT22;44276;49.534;6.378;2023-02-17T02:17:34;9.70;99.90
53776;DHT22;44276;49.534;6.378;2023-02-17T02:20:48;9.70;99.90
53776;DHT22;44276;49.534;6.378;2023-02-17T02:23:48;9.70;99.90
53776;DHT22;44276;49.534;6.378;2023-02-17T02:26:42;9.70;99.90
53776;DHT22;44276;49.534;6.378;2023-02-17T02:30:08;9.70;99.90
53776;DHT22;44276;49.534;6.378;2023-02-17T02:32:56;9.70;99.90
53776;DHT22;44276;49.534;6.378;2023-02-17T02:35:36;9.80;99.90
53776;DHT22;44276;49.534;6.378;2023-02-17T02:38:17;9.70;99.90
53776;DHT22;44276;49.534;6.378;2023-02-17T02:40:55;9.80;99.90
53776;DHT22;44276;49.534;6.378;2023-02-17T02:43:30;9.70;99.90
53776;DHT22;44276;49.534;6.378;2023-02-17T02:45:58;9.70;99.90
53776;DHT22;44276;49.534;6.378;2023-02-17T02:48:28;9.70;99.90
53776;DHT22;44276;49.534;6.378;2023-02-17T02:51:09;9.70;99.90
53776;DHT22;44276;49.534;6.378;2023-02-17T02:57:16;9.50;99.90
53776;DHT22;44276;49.534;6.378;2023-02-17T03:00:03;9.50;99.90
53776;DHT22;44276;49.534;6.378;2023-02-17T03:02:44;9.50;99.90
53776;DHT22;44276;49.534;6.378;2023-02-17T03:05:25;9.50;99.90
53776;DHT22;44276;49.534;6.378;2023-02-17T03:08:01;9.60;99.90
53776;DHT22;44276;49.534;6.378;2023-02-17T03:10:35;9.60;99.90
53776;DHT22;44276;49.534;6.378;2023-02-17T03:13:10;9.70;99.90
53776;DHT22;44276;49.534;6.378;2023-02-17T03:15:39;9.60;99.90
53776;DHT22;44276;49.534;6.378;2023-02-17T03:18:08;9.60;99.90
53776;DHT22;44276;49.534;6.378;2023-02-17T03:20:40;9.70;99.90
53776;DHT22;44276;49.534;6.378;2023-02-17T03:23:12;9.70;99.90
53776;DHT22;44276;49.534;6.378;2023-02-17T03:25:40;9.70;99.90
53776;DHT22;44276;49.534;6.378;2023-02-17T03:28:10;9.70;99.90
53776;DHT22;44276;49.534;6.378;2023-02-17T03:30:39;9.70;99.90
53776;DHT22;44276;49.534;6.378;2023-02-17T03:33:07;9.70;99.90
53776;DHT22;44276;49.534;6.378;2023-02-17T03:35:37;9.70;99.90
53776;DHT22;44276;49.534;6.378;2023-02-17T03:38:05;9.70;99.90
53776;DHT22;44276;49.534;6.378;2023-02-17T03:40:33;9.80;99.90
53776;DHT22;44276;49.534;6.378;2023-02-17T03:43:01;9.80;99.90
53776;DHT22;44276;49.534;6.378;2023-02-17T03:45:29;9.70;99.90
53776;DHT22;44276;49.534;6.378;2023-02-17T03:47:57;9.80;99.90
53776;DHT22;44276;49.534;6.378;2023-02-17T03:50:26;9.70;99.90
53776;DHT22;44276;49.534;6.378;2023-02-17T03:52:55;9.80;99.90
53776;DHT22;44276;49.534;6.378;2023-02-17T03:55:23;9.80;99.90
53776;DHT22;44276;49.534;6.378;2023-02-17T03:57:51;9.80;99.90
53776;DHT22;44276;49.534;6.378;2023-02-17T04:00:20;9.80;99.90
53776;DHT22;44276;49.534;6.378;2023-02-17T04:02:48;9.80;99.90
53776;DHT22;44276;49.534;6.378;2023-02-17T04:05:16;9.80;99.90
53776;DHT22;44276;49.534;6.378;2023-02-17T04:07:44;9.90;99.90
53776;DHT22;44276;49.534;6.378;2023-02-17T04:10:14;9.80;99.90
53776;DHT22;44276;49.534;6.378;2023-02-17T04:12:42;9.90;99.90
53776;DHT22;44276;49.534;6.378;2023-02-17T04:15:11;9.90;99.90
53776;DHT22;44276;49.534;6.378;2023-02-17T04:17:39;9.90;99.90
53776;DHT22;44276;49.534;6.378;2023-02-17T04:20:08;9.90;99.90
53776;DHT22;44276;49.534;6.378;2023-02-17T04:22:36;9.90;99.90
53776;DHT22;44276;49.534;6.378;2023-02-17T04:25:05;9.90;99.90
53776;DHT22;44276;49.534;6.378;2023-02-17T04:27:35;9.90;99.90
53776;DHT22;44276;49.534;6.378;2023-02-17T04:30:04;9.90;99.90
53776;DHT22;44276;49.534;6.378;2023-02-17T04:32:33;9.90;99.90
53776;DHT22;44276;49.534;6.378;2023-02-17T04:35:01;9.90;99.90
53776;DHT22;44276;49.534;6.378;2023-02-17T04:37:29;9.90;99.90
53776;DHT22;44276;49.534;6.378;2023-02-17T04:39:57;9.90;99.90
53776;DHT22;44276;49.534;6.378;2023-02-17T04:42:26;10.00;99.90
53776;DHT22;44276;49.534;6.378;2023-02-17T04:44:55;10.00;99.90
53776;DHT22;44276;49.534;6.378;2023-02-17T04:47:23;10.00;99.90
53776;DHT22;44276;49.534;6.378;2023-02-17T04:49:51;10.00;99.90
53776;DHT22;44276;49.534;6.378;2023-02-17T04:52:19;10.00;99.90
53776;DHT22;44276;49.534;6.378;2023-02-17T04:54:47;9.90;99.90
53776;DHT22;44276;49.534;6.378;2023-02-17T04:57:15;9.90;99.90
53776;DHT22;44276;49.534;6.378;2023-02-17T04:59:44;9.90;99.90
53776;DHT22;44276;49.534;6.378;2023-02-17T05:02:13;9.90;99.90
53776;DHT22;44276;49.534;6.378;2023-02-17T05:04:42;10.00;99.90
53776;DHT22;44276;49.534;6.378;2023-02-17T05:07:11;10.00;99.90
53776;DHT22;44276;49.534;6.378;2023-02-17T05:09:39;9.90;99.90
53776;DHT22;44276;49.534;6.378;2023-02-17T05:12:07;9.90;99.90
53776;DHT22;44276;49.534;6.378;2023-02-17T05:14:36;9.90;99.90
53776;DHT22;44276;49.534;6.378;2023-02-17T05:17:04;10.00;99.90
53776;DHT22;44276;49.534;6.378;2023-02-17T05:19:34;9.90;99.90
53776;DHT22;44276;49.534;6.378;2023-02-17T05:22:02;9.90;99.90
53776;DHT22;44276;49.534;6.378;2023-02-17T05:24:31;9.90;99.90
53776;DHT22;44276;49.534;6.378;2023-02-17T05:26:59;9.90;99.90
53776;DHT22;44276;49.534;6.378;2023-02-17T05:29:27;9.90;99.90
53776;DHT22;44276;49.534;6.378;2023-02-17T05:31:55;9.90;99.90
53776;DHT22;44276;49.534;6.378;2023-02-17T05:34:23;10.00;99.90
53776;DHT22;44276;49.534;6.378;2023-02-17T05:36:52;10.00;99.90
53776;DHT22;44276;49.534;6.378;2023-02-17T05:39:21;10.00;99.90
53776;DHT22;44276;49.534;6.378;2023-02-17T05:41:49;10.00;99.90
53776;DHT22;44276;49.534;6.378;2023-02-17T05:44:17;10.10;99.90
53776;DHT22;44276;49.534;6.378;2023-02-17T05:46:45;10.10;99.90
53776;DHT22;44276;49.534;6.378;2023-02-17T05:49:13;10.10;99.90
53776;DHT22;44276;49.534;6.378;2023-02-17T05:51:41;10.10;99.90
53776;DHT22;44276;49.534;6.378;2023-02-17T05:54:11;10.10;99.90
53776;DHT22;44276;49.534;6.378;2023-02-17T05:56:39;10.10;99.90
53776;DHT22;44276;49.534;6.378;2023-02-17T05:59:07;10.10;99.90
53776;DHT22;44276;49.534;6.378;2023-02-17T06:01:35;10.10;99.90
53776;DHT22;44276;49.534;6.378;2023-02-17T06:04:04;10.10;99.90
53776;DHT22;44276;49.534;6.378;2023-02-17T06:06:32;10.10;99.90
53776;DHT22;44276;49.534;6.378;2023-02-17T06:09:00;10.10;99.90
53776;DHT22;44276;49.534;6.378;2023-02-17T06:11:30;10.10;99.90
53776;DHT22;44276;49.534;6.378;2023-02-17T06:13:58;10.20;99.90
53776;DHT22;44276;49.534;6.378;2023-02-17T06:16:27;10.10;99.90
53776;DHT22;44276;49.534;6.378;2023-02-17T06:18:55;10.10;99.90
53776;DHT22;44276;49.534;6.378;2023-02-17T06:21:25;10.20;99.90
53776;DHT22;44276;49.534;6.378;2023-02-17T06:23:53;10.20;99.90
53776;DHT22;44276;49.534;6.378;2023-02-17T06:26:21;10.20;99.90
53776;DHT22;44276;49.534;6.378;2023-02-17T06:28:51;10.20;99.90
53776;DHT22;44276;49.534;6.378;2023-02-17T06:31:19;10.30;99.90
53776;DHT22;44276;49.534;6.378;2023-02-17T06:33:47;10.20;99.90
53776;DHT22;44276;49.534;6.378;2023-02-17T06:36:15;10.20;99.90
53776;DHT22;44276;49.534;6.378;2023-02-17T06:38:43;10.30;99.90
53776;DHT22;44276;49.534;6.378;2023-02-17T06:41:12;10.30;99.90
53776;DHT22;44276;49.534;6.378;2023-02-17T06:43:40;10.30;99.90
53776;DHT22;44276;49.534;6.378;2023-02-17T06:46:09;10.30;99.90
53776;DHT22;44276;49.534;6.378;2023-02-17T06:48:38;10.30;99.90
53776;DHT22;44276;49.534;6.378;2023-02-17T06:51:06;10.30;99.90
53776;DHT22;44276;49.534;6.378;2023-02-17T06:53:34;10.30;99.90
53776;DHT22;44276;49.534;6.378;2023-02-17T06:56:02;10.30;99.90
53776;DHT22;44276;49.534;6.378;2023-02-17T06:58:31;10.30;99.90
53776;DHT22;44276;49.534;6.378;2023-02-17T07:01:01;10.40;99.90
53776;DHT22;44276;49.534;6.378;2023-02-17T07:03:31;10.40;99.90
53776;DHT22;44276;49.534;6.378;2023-02-17T07:06:00;10.50;99.90
53776;DHT22;44276;49.534;6.378;2023-02-17T07:08:28;10.40;99.90
53776;DHT22;44276;49.534;6.378;2023-02-17T07:10:58;10.40;99.90
53776;DHT22;44276;49.534;6.378;2023-02-17T07:13:26;10.40;99.90
53776;DHT22;44276;49.534;6.378;2023-02-17T07:15:54;10.40;99.90
53776;DHT22;44276;49.534;6.378;2023-02-17T07:18:22;10.40;99.90
53776;DHT22;44276;49.534;6.378;2023-02-17T07:20:52;10.40;99.90
53776;DHT22;44276;49.534;6.378;2023-02-17T07:23:20;10.50;99.90
53776;DHT22;44276;49.534;6.378;2023-02-17T07:25:48;10.50;99.90
53776;DHT22;44276;49.534;6.378;2023-02-17T07:28:16;10.50;99.90
53776;DHT22;44276;49.534;6.378;2023-02-17T07:30:45;10.50;99.90
53776;DHT22;44276;49.534;6.378;2023-02-17T07:33:13;10.60;99.90
53776;DHT22;44276;49.534;6.378;2023-02-17T07:35:41;10.60;99.90
53776;DHT22;44276;49.534;6.378;2023-02-17T07:38:12;10.60;99.90
53776;DHT22;44276;49.534;6.378;2023-02-17T07:40:40;10.60;99.90
53776;DHT22;44276;49.534;6.378;2023-02-17T07:43:08;10.60;99.90
53776;DHT22;44276;49.534;6.378;2023-02-17T07:45:36;10.70;99.90
53776;DHT22;44276;49.534;6.378;2023-02-17T07:48:04;10.70;99.90
53776;DHT22;44276;49.534;6.378;2023-02-17T07:50:32;10.70;99.90
53776;DHT22;44276;49.534;6.378;2023-02-17T07:53:01;10.70;99.90
53776;DHT22;44276;49.534;6.378;2023-02-17T07:55:30;10.80;99.90
53776;DHT22;44276;49.534;6.378;2023-02-17T07:57:59;10.80;99.90
53776;DHT22;44276;49.534;6.378;2023-02-17T08:00:27;10.80;99.90
53776;DHT22;44276;49.534;6.378;2023-02-17T08:02:55;10.80;99.90
53776;DHT22;44276;49.534;6.378;2023-02-17T08:05:23;10.80;99.90
53776;DHT22;44276;49.534;6.378;2023-02-17T08:07:51;10.70;99.90
53776;DHT22;44276;49.534;6.378;2023-02-17T08:10:40;10.60;99.90
53776;DHT22;44276;49.534;6.378;2023-02-17T08:13:27;10.50;99.90
53776;DHT22;44276;49.534;6.378;2023-02-17T08:15:55;10.40;99.90
53776;DHT22;44276;49.534;6.378;2023-02-17T08:18:23;10.30;99.90
53776;DHT22;44276;49.534;6.378;2023-02-17T08:20:51;10.20;99.90
53776;DHT22;44276;49.534;6.378;2023-02-17T08:23:20;10.20;99.90
53776;DHT22;44276;49.534;6.378;2023-02-17T08:25:49;10.30;99.90
53776;DHT22;44276;49.534;6.378;2023-02-17T08:28:17;10.20;99.90
53776;DHT22;44276;49.534;6.378;2023-02-17T08:30:47;10.20;99.90
53776;DHT22;44276;49.534;6.378;2023-02-17T08:33:15;10.30;99.90
53776;DHT22;44276;49.534;6.378;2023-02-17T08:35:44;10.30;99.90
53776;DHT22;44276;49.534;6.378;2023-02-17T08:38:13;10.30;99.90
53776;DHT22;44276;49.534;6.378;2023-02-17T08:40:41;10.30;99.90
53776;DHT22;44276;49.534;6.378;2023-02-17T08:43:10;10.30;99.90
53776;DHT22;44276;49.534;6.378;2023-02-17T08:45:39;10.40;99.90
53776;DHT22;44276;49.534;6.378;2023-02-17T08:48:07;10.40;99.90
53776;DHT22;44276;49.534;6.378;2023-02-17T08:50:35;10.50;99.90
53776;DHT22;44276;49.534;6.378;2023-02-17T08:53:03;10.50;99.90
53776;DHT22;44276;49.534;6.378;2023-02-17T08:55:31;10.60;99.90
53776;DHT22;44276;49.534;6.378;2023-02-17T08:58:15;10.70;99.90
53776;DHT22;44276;49.534;6.378;2023-02-17T09:00:44;10.70;99.90
53776;DHT22;44276;49.534;6.378;2023-02-17T09:03:12;10.80;99.90
53776;DHT22;44276;49.534;6.378;2023-02-17T09:05:40;10.80;99.90
53776;DHT22;44276;49.534;6.378;2023-02-17T09:08:08;10.80;99.90
53776;DHT22;44276;49.534;6.378;2023-02-17T09:10:37;10.70;99.90
53776;DHT22;44276;49.534;6.378;2023-02-17T09:13:05;10.90;99.90
53776;DHT22;44276;49.534;6.378;2023-02-17T09:15:35;11.00;99.90
53776;DHT22;44276;49.534;6.378;2023-02-17T09:18:03;11.00;99.90
53776;DHT22;44276;49.534;6.378;2023-02-17T09:20:32;11.00;99.90
53776;DHT22;44276;49.534;6.378;2023-02-17T09:23:00;11.00;99.90
53776;DHT22;44276;49.534;6.378;2023-02-17T09:25:28;11.00;99.90
53776;DHT22;44276;49.534;6.378;2023-02-17T09:27:56;11.00;99.90
53776;DHT22;44276;49.534;6.378;2023-02-17T09:30:25;11.00;99.90
53776;DHT22;44276;49.534;6.378;2023-02-17T09:32:55;11.00;99.90
53776;DHT22;44276;49.534;6.378;2023-02-17T09:35:24;11.00;99.90
53776;DHT22;44276;49.534;6.378;2023-02-17T09:37:53;11.10;99.90
53776;DHT22;44276;49.534;6.378;2023-02-17T09:40:25;11.20;99.90
53776;DHT22;44276;49.534;6.378;2023-02-17T09:43:07;11.20;99.90
53776;DHT22;44276;49.534;6.378;2023-02-17T09:45:42;11.30;99.90
53776;DHT22;44276;49.534;6.378;2023-02-17T09:48:16;11.30;99.90
53776;DHT22;44276;49.534;6.378;2023-02-17T09:50:52;11.30;99.90
53776;DHT22;44276;49.534;6.378;2023-02-17T09:53:26;11.30;99.90
53776;DHT22;44276;49.534;6.378;2023-02-17T09:56:04;11.30;99.90
53776;DHT22;44276;49.534;6.378;2023-02-17T09:58:39;11.30;99.90
53776;DHT22;44276;49.534;6.378;2023-02-17T10:01:15;11.30;99.90
53776;DHT22;44276;49.534;6.378;2023-02-17T10:03:50;11.30;99.90
53776;DHT22;44276;49.534;6.378;2023-02-17T10:06:25;11.40;99.90
53776;DHT22;44276;49.534;6.378;2023-02-17T10:08:59;11.50;99.90
53776;DHT22;44276;49.534;6.378;2023-02-17T10:11:37;11.60;99.90
53776;DHT22;44276;49.534;6.378;2023-02-17T10:14:16;11.70;99.90
53776;DHT22;44276;49.534;6.378;2023-02-17T10:16:59;11.70;99.90
53776;DHT22;44276;49.534;6.378;2023-02-17T10:19:36;11.80;99.90
53776;DHT22;44276;49.534;6.378;2023-02-17T10:22:15;11.90;99.90
53776;DHT22;44276;49.534;6.378;2023-02-17T10:24:45;11.90;99.90
53776;DHT22;44276;49.534;6.378;2023-02-17T10:27:35;12.00;99.90
53776;DHT22;44276;49.534;6.378;2023-02-17T10:30:27;12.00;99.90
53776;DHT22;44276;49.534;6.378;2023-02-17T10:33:01;12.00;99.90
53776;DHT22;44276;49.534;6.378;2023-02-17T10:35:49;12.00;99.90
53776;DHT22;44276;49.534;6.378;2023-02-17T10:38:32;12.00;99.90
53776;DHT22;44276;49.534;6.378;2023-02-17T10:41:12;11.90;99.90
53776;DHT22;44276;49.534;6.378;2023-02-17T10:43:44;11.90;99.90
53776;DHT22;44276;49.534;6.378;2023-02-17T10:46:15;11.90;99.90
53776;DHT22;44276;49.534;6.378;2023-02-17T10:48:47;11.90;99.90
53776;DHT22;44276;49.534;6.378;2023-02-17T10:51:22;12.00;99.90
53776;DHT22;44276;49.534;6.378;2023-02-17T10:53:56;12.10;99.90
53776;DHT22;44276;49.534;6.378;2023-02-17T10:56:33;12.10;99.90
53776;DHT22;44276;49.534;6.378;2023-02-17T10:59:07;12.20;99.90
53776;DHT22;44276;49.534;6.378;2023-02-17T11:01:43;12.30;99.90
53776;DHT22;44276;49.534;6.378;2023-02-17T11:04:12;12.30;99.90
53776;DHT22;44276;49.534;6.378;2023-02-17T11:06:45;12.30;99.90
53776;DHT22;44276;49.534;6.378;2023-02-17T11:09:21;12.40;99.90
53776;DHT22;44276;49.534;6.378;2023-02-17T11:11:58;12.40;99.90
53776;DHT22;44276;49.534;6.378;2023-02-17T11:14:31;12.60;99.90
53776;DHT22;44276;49.534;6.378;2023-02-17T11:17:12;12.60;99.90
53776;DHT22;44276;49.534;6.378;2023-02-17T11:19:54;12.60;99.90
53776;DHT22;44276;49.534;6.378;2023-02-17T11:22:33;12.60;99.90
53776;DHT22;44276;49.534;6.378;2023-02-17T11:25:19;12.60;99.90
53776;DHT22;44276;49.534;6.378;2023-02-17T11:27:50;12.60;99.90
53776;DHT22;44276;49.534;6.378;2023-02-17T11:30:19;12.50;99.90
53776;DHT22;44276;49.534;6.378;2023-02-17T11:32:48;12.40;99.90
53776;DHT22;44276;49.534;6.378;2023-02-17T11:35:23;12.40;99.90
53776;DHT22;44276;49.534;6.378;2023-02-17T11:38:02;12.50;99.90
53776;DHT22;44276;49.534;6.378;2023-02-17T11:40:37;12.50;99.90
53776;DHT22;44276;49.534;6.378;2023-02-17T11:43:06;12.60;99.90
53776;DHT22;44276;49.534;6.378;2023-02-17T11:45:40;12.60;99.90
53776;DHT22;44276;49.534;6.378;2023-02-17T11:48:31;12.60;99.90
53776;DHT22;44276;49.534;6.378;2023-02-17T11:51:15;12.70;99.90
53776;DHT22;44276;49.534;6.378;2023-02-17T11:53:56;12.70;99.90
53776;DHT22;44276;49.534;6.378;2023-02-17T11:56:33;12.80;99.90
53776;DHT22;44276;49.534;6.378;2023-02-17T11:59:28;12.90;99.90
53776;DHT22;44276;49.534;6.378;2023-02-17T12:02:22;12.90;99.90
53776;DHT22;44276;49.534;6.378;2023-02-17T12:05:18;12.70;99.90
53776;DHT22;44276;49.534;6.378;2023-02-17T12:08:04;12.70;99.90
53776;DHT22;44276;49.534;6.378;2023-02-17T12:10:58;12.80;99.90
53776;DHT22;44276;49.534;6.378;2023-02-17T12:13:41;12.80;99.90
53776;DHT22;44276;49.534;6.378;2023-02-17T12:16:29;12.70;99.90
53776;DHT22;44276;49.534;6.378;2023-02-17T12:19:10;12.80;99.90
53776;DHT22;44276;49.534;6.378;2023-02-17T12:22:01;12.90;99.90
53776;DHT22;44276;49.534;6.378;2023-02-17T12:24:44;12.80;99.90
53776;DHT22;44276;49.534;6.378;2023-02-17T12:27:42;12.80;99.90
53776;DHT22;44276;49.534;6.378;2023-02-17T12:30:26;12.80;99.90
53776;DHT22;44276;49.534;6.378;2023-02-17T12:33:16;12.80;99.90
53776;DHT22;44276;49.534;6.378;2023-02-17T12:36:00;12.90;99.90
53776;DHT22;44276;49.534;6.378;2023-02-17T12:38:34;12.90;99.90
53776;DHT22;44276;49.534;6.378;2023-02-17T12:41:10;12.80;99.90
53776;DHT22;44276;49.534;6.378;2023-02-17T12:43:46;12.80;99.90
53776;DHT22;44276;49.534;6.378;2023-02-17T12:46:22;12.80;99.90
53776;DHT22;44276;49.534;6.378;2023-02-17T12:49:00;12.80;99.90
53776;DHT22;44276;49.534;6.378;2023-02-17T12:51:36;12.70;99.90
53776;DHT22;44276;49.534;6.378;2023-02-17T12:54:14;12.70;99.90
53776;DHT22;44276;49.534;6.378;2023-02-17T12:57:04;12.60;99.90
53776;DHT22;44276;49.534;6.378;2023-02-17T12:59:42;12.60;99.90
53776;DHT22;44276;49.534;6.378;2023-02-17T13:02:13;12.60;99.90
53776;DHT22;44276;49.534;6.378;2023-02-17T13:04:44;12.60;99.90
53776;DHT22;44276;49.534;6.378;2023-02-17T13:07:38;12.60;99.90
53776;DHT22;44276;49.534;6.378;2023-02-17T13:10:27;12.60;99.90
53776;DHT22;44276;49.534;6.378;2023-02-17T13:13:01;12.60;99.90
53776;DHT22;44276;49.534;6.378;2023-02-17T13:15:37;12.60;99.90
53776;DHT22;44276;49.534;6.378;2023-02-17T13:18:11;12.60;99.90
53776;DHT22;44276;49.534;6.378;2023-02-17T13:20:54;12.70;99.90
53776;DHT22;44276;49.534;6.378;2023-02-17T13:23:37;12.80;99.90
53776;DHT22;44276;49.534;6.378;2023-02-17T13:29:31;12.80;99.90
53776;DHT22;44276;49.534;6.378;2023-02-17T13:32:05;12.90;99.90
53776;DHT22;44276;49.534;6.378;2023-02-17T13:34:38;13.00;99.90
53776;DHT22;44276;49.534;6.378;2023-02-17T13:37:18;13.00;99.90
53776;DHT22;44276;49.534;6.378;2023-02-17T13:39:53;12.90;99.90
53776;DHT22;44276;49.534;6.378;2023-02-17T13:42:33;12.90;99.90
53776;DHT22;44276;49.534;6.378;2023-02-17T13:45:13;12.80;99.90
53776;DHT22;44276;49.534;6.378;2023-02-17T13:47:50;12.70;99.90
53776;DHT22;44276;49.534;6.378;2023-02-17T13:50:29;12.70;99.90
53776;DHT22;44276;49.534;6.378;2023-02-17T13:53:00;12.70;99.90
53776;DHT22;44276;49.534;6.378;2023-02-17T13:55:30;12.60;99.90
53776;DHT22;44276;49.534;6.378;2023-02-17T13:57:59;12.50;99.90
53776;DHT22;44276;49.534;6.378;2023-02-17T14:00:28;12.50;99.90
53776;DHT22;44276;49.534;6.378;2023-02-17T14:03:04;12.40;99.90
53776;DHT22;44276;49.534;6.378;2023-02-17T14:05:44;12.30;99.90
53776;DHT22;44276;49.534;6.378;2023-02-17T14:08:18;12.40;99.90
53776;DHT22;44276;49.534;6.378;2023-02-17T14:10:53;12.50;99.90
53776;DHT22;44276;49.534;6.378;2023-02-17T14:13:23;12.50;99.90
53776;DHT22;44276;49.534;6.378;2023-02-17T14:15:54;12.50;99.90
53776;DHT22;44276;49.534;6.378;2023-02-17T14:18:29;12.30;99.90
53776;DHT22;44276;49.534;6.378;2023-02-17T14:21:03;12.30;99.90
53776;DHT22;44276;49.534;6.378;2023-02-17T14:23:42;12.30;99.90
53776;DHT22;44276;49.534;6.378;2023-02-17T14:26:22;12.40;99.90
53776;DHT22;44276;49.534;6.378;2023-02-17T14:28:55;12.50;99.90
53776;DHT22;44276;49.534;6.378;2023-02-17T14:31:26;12.40;99.90
53776;DHT22;44276;49.534;6.378;2023-02-17T14:33:58;12.30;99.90
53776;DHT22;44276;49.534;6.378;2023-02-17T14:36:33;12.30;99.90
53776;DHT22;44276;49.534;6.378;2023-02-17T14:39:05;12.20;99.90
53776;DHT22;44276;49.534;6.378;2023-02-17T14:41:34;12.20;99.90
53776;DHT22;44276;49.534;6.378;2023-02-17T14:44:02;12.20;99.90
53776;DHT22;44276;49.534;6.378;2023-02-17T14:46:31;12.10;99.90
53776;DHT22;44276;49.534;6.378;2023-02-17T14:49:01;12.20;99.90
53776;DHT22;44276;49.534;6.378;2023-02-17T14:51:32;12.10;99.90
53776;DHT22;44276;49.534;6.378;2023-02-17T14:54:02;12.20;99.90
53776;DHT22;44276;49.534;6.378;2023-02-17T14:56:40;12.20;99.90
53776;DHT22;44276;49.534;6.378;2023-02-17T14:59:13;12.20;99.90
53776;DHT22;44276;49.534;6.378;2023-02-17T15:01:41;12.10;99.90
53776;DHT22;44276;49.534;6.378;2023-02-17T15:04:11;12.10;99.90
53776;DHT22;44276;49.534;6.378;2023-02-17T15:06:42;12.00;99.90
53776;DHT22;44276;49.534;6.378;2023-02-17T15:09:13;12.00;99.90
53776;DHT22;44276;49.534;6.378;2023-02-17T15:11:43;12.00;99.90
53776;DHT22;44276;49.534;6.378;2023-02-17T15:14:16;11.90;99.90
53776;DHT22;44276;49.534;6.378;2023-02-17T15:16:47;11.90;99.90
53776;DHT22;44276;49.534;6.378;2023-02-17T15:19:17;11.80;99.90
53776;DHT22;44276;49.534;6.378;2023-02-17T15:21:46;11.80;99.90
53776;DHT22;44276;49.534;6.378;2023-02-17T15:24:19;11.70;99.90
53776;DHT22;44276;49.534;6.378;2023-02-17T15:26:53;11.70;99.90
53776;DHT22;44276;49.534;6.378;2023-02-17T15:29:23;11.60;99.90
53776;DHT22;44276;49.534;6.378;2023-02-17T15:31:54;11.60;99.90
53776;DHT22;44276;49.534;6.378;2023-02-17T15:34:29;11.50;99.90
53776;DHT22;44276;49.534;6.378;2023-02-17T15:36:59;11.50;99.90
53776;DHT22;44276;49.534;6.378;2023-02-17T15:39:28;11.40;99.90
53776;DHT22;44276;49.534;6.378;2023-02-17T15:41:59;11.40;99.90
53776;DHT22;44276;49.534;6.378;2023-02-17T15:44:40;11.40;99.90
53776;DHT22;44276;49.534;6.378;2023-02-17T15:47:14;11.40;99.90
53776;DHT22;44276;49.534;6.378;2023-02-17T15:49:45;11.40;99.90
53776;DHT22;44276;49.534;6.378;2023-02-17T15:52:14;11.40;99.90
53776;DHT22;44276;49.534;6.378;2023-02-17T15:54:42;11.40;99.90
53776;DHT22;44276;49.534;6.378;2023-02-17T15:57:18;11.30;99.90
53776;DHT22;44276;49.534;6.378;2023-02-17T15:59:48;11.30;99.90
53776;DHT22;44276;49.534;6.378;2023-02-17T16:02:21;11.30;99.90
53776;DHT22;44276;49.534;6.378;2023-02-17T16:04:52;11.30;99.90
53776;DHT22;44276;49.534;6.378;2023-02-17T16:07:20;11.30;99.90
53776;DHT22;44276;49.534;6.378;2023-02-17T16:09:48;11.30;99.90
53776;DHT22;44276;49.534;6.378;2023-02-17T16:12:18;11.30;99.90
53776;DHT22;44276;49.534;6.378;2023-02-17T16:14:53;11.30;99.90